sensor_id;sensor_type;location;lat;lon;timestamp;pressure;altitude;pressure_sealevel;temperature;humidity
40708;BME280;26392;42.696;23.350;2023-02-13T00:02:23;97056.28;;;0.22;100.00
40708;BME280;26392;42.696;23.350;2023-02-13T00:04:49;97057.88;;;0.15;100.00
40708;BME280;26392;42.696;23.350;2023-02-13T00:07:14;97060.56;;;0.15;100.00
40708;BME280;26392;42.696;23.350;2023-02-13T00:09:39;97055.78;;;0.09;100.00
40708;BME280;26392;42.696;23.350;2023-02-13T00:12:06;97061.00;;;0.10;100.00
40708;BME280;26392;42.696;23.350;2023-02-13T00:14:36;97053.78;;;0.11;100.00
40708;BME280;26392;42.696;23.350;2023-02-13T00:17:03;97055.03;;;0.16;100.00
40708;BME280;26392;42.696;23.350;2023-02-13T00:19:28;97056.03;;;0.15;100.00
40708;BME280;26392;42.696;23.350;2023-02-13T00:21:53;97056.75;;;0.17;100.00
40708;BME280;26392;42.696;23.350;2023-02-13T00:24:19;97050.38;;;0.18;100.00
40708;BME280;26392;42.696;23.350;2023-02-13T00:26:45;97059.81;;;0.22;100.00
40708;BME280;26392;42.696;23.350;2023-02-13T00:29:10;97063.47;;;0.21;100.00
40708;BME280;26392;42.696;23.350;2023-02-13T00:31:35;97064.63;;;0.19;100.00
40708;BME280;26392;42.696;23.350;2023-02-13T00:34:01;97056.34;;;0.12;100.00
40708;BME280;26392;42.696;23.350;2023-02-13T00:36:27;97071.22;;;0.25;100.00
40708;BME280;26392;42.696;23.350;2023-02-13T00:38:53;97053.47;;;0.24;100.00
40708;BME280;26392;42.696;23.350;2023-02-13T00:41:18;97063.34;;;0.23;100.00
40708;BME280;26392;42.696;23.350;2023-02-13T00:43:45;97063.88;;;0.27;100.00
40708;BME280;26392;42.696;23.350;2023-02-13T00:46:10;97073.91;;;0.25;100.00
40708;BME280;26392;42.696;23.350;2023-02-13T00:48:36;97071.50;;;0.31;100.00
40708;BME280;26392;42.696;23.350;2023-02-13T00:51:03;97066.56;;;0.27;100.00
40708;BME280;26392;42.696;23.350;2023-02-13T00:53:29;97072.88;;;0.35;100.00
40708;BME280;26392;42.696;23.350;2023-02-13T00:55:55;97074.41;;;0.38;100.00
40708;BME280;26392;42.696;23.350;2023-02-13T00:58:20;97072.75;;;0.37;100.00
40708;BME280;26392;42.696;23.350;2023-02-13T01:00:47;97077.22;;;0.36;100.00
40708;BME280;26392;42.696;23.350;2023-02-13T01:03:14;97074.00;;;0.33;100.00
40708;BME280;26392;42.696;23.350;2023-02-13T01:05:40;97075.84;;;0.32;100.00
40708;BME280;26392;42.696;23.350;2023-02-13T01:08:05;97080.78;;;0.37;100.00
40708;BME280;26392;42.696;23.350;2023-02-13T01:10:31;97078.53;;;0.32;100.00
40708;BME280;26392;42.696;23.350;2023-02-13T01:12:57;97078.53;;;0.32;100.00
40708;BME280;26392;42.696;23.350;2023-02-13T01:15:22;97071.78;;;0.28;100.00
40708;BME280;26392;42.696;23.350;2023-02-13T01:17:48;97080.81;;;0.27;100.00
40708;BME280;26392;42.696;23.350;2023-02-13T01:20:14;97079.97;;;0.27;100.00
40708;BME280;26392;42.696;23.350;2023-02-13T01:22:40;97074.91;;;0.24;100.00
40708;BME280;26392;42.696;23.350;2023-02-13T01:25:08;97083.09;;;0.22;100.00
40708;BME280;26392;42.696;23.350;2023-02-13T01:27:34;97075.22;;;0.11;100.00
40708;BME280;26392;42.696;23.350;2023-02-13T01:29:59;97086.81;;;0.11;100.00
40708;BME280;26392;42.696;23.350;2023-02-13T01:32:25;97076.00;;;-0.07;100.00
40708;BME280;26392;42.696;23.350;2023-02-13T01:34:50;97090.28;;;-0.16;100.00
40708;BME280;26392;42.696;23.350;2023-02-13T01:37:16;97089.56;;;-0.18;100.00
40708;BME280;26392;42.696;23.350;2023-02-13T01:39:41;97076.75;;;-0.24;100.00
40708;BME280;26392;42.696;23.350;2023-02-13T01:42:16;97088.31;;;-0.24;100.00
40708;BME280;26392;42.696;23.350;2023-02-13T01:44:45;97093.69;;;-0.24;100.00
40708;BME280;26392;42.696;23.350;2023-02-13T01:47:13;97097.66;;;-0.28;100.00
40708;BME280;26392;42.696;23.350;2023-02-13T01:49:40;97091.84;;;-0.23;100.00
40708;BME280;26392;42.696;23.350;2023-02-13T01:52:09;97093.97;;;-0.27;100.00
40708;BME280;26392;42.696;23.350;2023-02-13T01:54:36;97103.69;;;-0.26;100.00
40708;BME280;26392;42.696;23.350;2023-02-13T01:57:08;97095.94;;;-0.19;100.00
40708;BME280;26392;42.696;23.350;2023-02-13T01:59:57;97097.59;;;-0.08;100.00
40708;BME280;26392;42.696;23.350;2023-02-13T02:02:25;97102.50;;;-0.04;100.00
40708;BME280;26392;42.696;23.350;2023-02-13T02:04:51;97089.69;;;0.00;100.00
40708;BME280;26392;42.696;23.350;2023-02-13T02:07:20;97101.34;;;0.09;100.00
40708;BME280;26392;42.696;23.350;2023-02-13T02:09:48;97093.03;;;0.02;100.00
40708;BME280;26392;42.696;23.350;2023-02-13T02:15:07;97073.97;;;0.05;100.00
40708;BME280;26392;42.696;23.350;2023-02-13T02:17:33;97088.50;;;0.12;100.00
40708;BME280;26392;42.696;23.350;2023-02-13T02:20:20;97083.72;;;0.06;100.00
40708;BME280;26392;42.696;23.350;2023-02-13T02:38:41;97092.06;;;0.03;100.00
40708;BME280;26392;42.696;23.350;2023-02-13T02:41:30;97104.75;;;0.01;100.00
40708;BME280;26392;42.696;23.350;2023-02-13T02:49:53;97115.69;;;-0.30;100.00
40708;BME280;26392;42.696;23.350;2023-02-13T02:56:12;97121.75;;;-0.28;100.00
40708;BME280;26392;42.696;23.350;2023-02-13T02:59:01;97119.38;;;-0.31;100.00
40708;BME280;26392;42.696;23.350;2023-02-13T03:01:47;97123.47;;;-0.46;100.00
40708;BME280;26392;42.696;23.350;2023-02-13T03:04:36;97123.31;;;-0.54;100.00
40708;BME280;26392;42.696;23.350;2023-02-13T03:07:21;97120.50;;;-0.62;100.00
40708;BME280;26392;42.696;23.350;2023-02-13T03:09:56;97124.47;;;-0.66;100.00
40708;BME280;26392;42.696;23.350;2023-02-13T03:13:01;97113.75;;;-0.66;100.00
40708;BME280;26392;42.696;23.350;2023-02-13T03:15:47;97123.03;;;-0.71;100.00
40708;BME280;26392;42.696;23.350;2023-02-13T03:18:38;97120.34;;;-0.71;100.00
40708;BME280;26392;42.696;23.350;2023-02-13T03:24:16;97117.13;;;-0.55;100.00
40708;BME280;26392;42.696;23.350;2023-02-13T03:29:58;97124.84;;;-0.91;100.00
40708;BME280;26392;42.696;23.350;2023-02-13T03:37:56;97133.75;;;-1.40;100.00
40708;BME280;26392;42.696;23.350;2023-02-13T03:40:33;97128.56;;;-1.42;100.00
40708;BME280;26392;42.696;23.350;2023-02-13T03:43:13;97128.69;;;-1.43;100.00
40708;BME280;26392;42.696;23.350;2023-02-13T03:45:44;97126.63;;;-1.40;100.00
40708;BME280;26392;42.696;23.350;2023-02-13T03:48:22;97125.34;;;-1.36;100.00
40708;BME280;26392;42.696;23.350;2023-02-13T03:51:09;97111.53;;;-1.41;100.00
40708;BME280;26392;42.696;23.350;2023-02-13T03:53:37;97127.00;;;-1.44;100.00
40708;BME280;26392;42.696;23.350;2023-02-13T03:56:07;97121.94;;;-1.38;100.00
40708;BME280;26392;42.696;23.350;2023-02-13T03:58:53;97137.00;;;-1.46;100.00
40708;BME280;26392;42.696;23.350;2023-02-13T04:01:40;97122.97;;;-1.69;100.00
40708;BME280;26392;42.696;23.350;2023-02-13T04:04:23;97127.75;;;-1.73;100.00
40708;BME280;26392;42.696;23.350;2023-02-13T04:06:56;97126.66;;;-1.70;100.00
40708;BME280;26392;42.696;23.350;2023-02-13T04:09:26;97132.38;;;-1.75;100.00
40708;BME280;26392;42.696;23.350;2023-02-13T04:12:19;97126.78;;;-1.72;100.00
40708;BME280;26392;42.696;23.350;2023-02-13T04:14:57;97122.97;;;-1.69;100.00
40708;BME280;26392;42.696;23.350;2023-02-13T04:17:31;97114.69;;;-1.66;100.00
40708;BME280;26392;42.696;23.350;2023-02-13T04:19:58;97136.34;;;-1.69;100.00
40708;BME280;26392;42.696;23.350;2023-02-13T04:22:24;97131.16;;;-1.71;100.00
40708;BME280;26392;42.696;23.350;2023-02-13T04:24:49;97139.56;;;-1.75;100.00
40708;BME280;26392;42.696;23.350;2023-02-13T04:27:15;97133.94;;;-1.72;100.00
40708;BME280;26392;42.696;23.350;2023-02-13T04:29:41;97140.38;;;-1.54;100.00
40708;BME280;26392;42.696;23.350;2023-02-13T04:32:09;97145.28;;;-1.49;100.00
40708;BME280;26392;42.696;23.350;2023-02-13T04:34:34;97136.31;;;-1.48;100.00
40708;BME280;26392;42.696;23.350;2023-02-13T04:37:00;97133.47;;;-1.47;100.00
40708;BME280;26392;42.696;23.350;2023-02-13T04:39:25;97136.97;;;-1.56;100.00
40708;BME280;26392;42.696;23.350;2023-02-13T04:41:51;97131.09;;;-1.40;100.00
40708;BME280;26392;42.696;23.350;2023-02-13T04:44:16;97135.66;;;-1.31;100.00
40708;BME280;26392;42.696;23.350;2023-02-13T04:46:41;97138.44;;;-1.42;100.00
40708;BME280;26392;42.696;23.350;2023-02-13T04:49:08;97136.53;;;-1.51;100.00
40708;BME280;26392;42.696;23.350;2023-02-13T04:51:33;97138.53;;;-1.53;100.00
40708;BME280;26392;42.696;23.350;2023-02-13T04:53:59;97149.91;;;-1.51;100.00
40708;BME280;26392;42.696;23.350;2023-02-13T04:56:24;97151.44;;;-1.59;100.00
40708;BME280;26392;42.696;23.350;2023-02-13T04:58:50;97154.22;;;-1.70;100.00
40708;BME280;26392;42.696;23.350;2023-02-13T05:01:16;97150.72;;;-1.61;100.00
40708;BME280;26392;42.696;23.350;2023-02-13T05:03:42;97150.91;;;-1.52;100.00
40708;BME280;26392;42.696;23.350;2023-02-13T05:06:08;97146.28;;;-1.41;100.00
40708;BME280;26392;42.696;23.350;2023-02-13T05:08:33;97159.72;;;-1.31;100.00
40708;BME280;26392;42.696;23.350;2023-02-13T05:10:59;97157.69;;;-1.48;100.00
40708;BME280;26392;42.696;23.350;2023-02-13T05:13:24;97159.91;;;-1.53;100.00
40708;BME280;26392;42.696;23.350;2023-02-13T05:15:49;97154.13;;;-1.59;100.00
40708;BME280;26392;42.696;23.350;2023-02-13T05:18:17;97165.00;;;-1.50;100.00
40708;BME280;26392;42.696;23.350;2023-02-13T05:20:42;97169.25;;;-1.38;100.00
40708;BME280;26392;42.696;23.350;2023-02-13T05:23:12;97147.19;;;-1.30;100.00
40708;BME280;26392;42.696;23.350;2023-02-13T05:25:47;97177.22;;;-1.17;100.00
40708;BME280;26392;42.696;23.350;2023-02-13T05:28:12;97176.94;;;-1.14;100.00
40708;BME280;26392;42.696;23.350;2023-02-13T05:30:56;97174.44;;;-1.06;100.00
40708;BME280;26392;42.696;23.350;2023-02-13T05:33:21;97169.59;;;-1.22;100.00
40708;BME280;26392;42.696;23.350;2023-02-13T05:35:47;97176.22;;;-1.26;100.00
40708;BME280;26392;42.696;23.350;2023-02-13T05:38:12;97174.22;;;-1.24;100.00
40708;BME280;26392;42.696;23.350;2023-02-13T05:40:38;97181.91;;;-1.40;100.00
40708;BME280;26392;42.696;23.350;2023-02-13T05:43:03;97177.53;;;-1.41;100.00
40708;BME280;26392;42.696;23.350;2023-02-13T05:45:28;97186.72;;;-1.34;100.00
40708;BME280;26392;42.696;23.350;2023-02-13T05:47:54;97166.19;;;-1.24;100.00
40708;BME280;26392;42.696;23.350;2023-02-13T05:50:19;97186.41;;;-1.00;100.00
40708;BME280;26392;42.696;23.350;2023-02-13T05:52:45;97184.88;;;-0.83;100.00
40708;BME280;26392;42.696;23.350;2023-02-13T05:55:10;97187.56;;;-0.74;100.00
40708;BME280;26392;42.696;23.350;2023-02-13T05:57:35;97187.44;;;-0.72;100.00
40708;BME280;26392;42.696;23.350;2023-02-13T06:00:02;97183.94;;;-0.53;100.00
40708;BME280;26392;42.696;23.350;2023-02-13T06:02:28;97182.53;;;-0.48;100.00
40708;BME280;26392;42.696;23.350;2023-02-13T06:04:53;97189.00;;;-0.50;100.00
40708;BME280;26392;42.696;23.350;2023-02-13T06:07:18;97189.28;;;-0.34;100.00
40708;BME280;26392;42.696;23.350;2023-02-13T06:09:44;97188.44;;;-0.25;100.00
40708;BME280;26392;42.696;23.350;2023-02-13T06:12:09;97190.25;;;-0.15;100.00
40708;BME280;26392;42.696;23.350;2023-02-13T06:14:34;97192.78;;;-0.04;100.00
40708;BME280;26392;42.696;23.350;2023-02-13T06:17:00;97195.19;;;-0.11;100.00
40708;BME280;26392;42.696;23.350;2023-02-13T06:19:25;97195.19;;;-0.11;100.00
40708;BME280;26392;42.696;23.350;2023-02-13T06:21:51;97201.25;;;0.01;100.00
40708;BME280;26392;42.696;23.350;2023-02-13T06:24:16;97202.34;;;0.18;100.00
40708;BME280;26392;42.696;23.350;2023-02-13T06:26:42;97202.00;;;0.31;100.00
40708;BME280;26392;42.696;23.350;2023-02-13T06:29:07;97209.16;;;0.50;100.00
40708;BME280;26392;42.696;23.350;2023-02-13T06:31:33;97203.22;;;0.56;100.00
40708;BME280;26392;42.696;23.350;2023-02-13T06:33:59;97216.19;;;0.70;100.00
40708;BME280;26392;42.696;23.350;2023-02-13T06:36:24;97201.66;;;0.63;100.00
40708;BME280;26392;42.696;23.350;2023-02-13T06:38:50;97205.44;;;0.70;100.00
40708;BME280;26392;42.696;23.350;2023-02-13T06:41:15;97209.56;;;0.64;100.00
40708;BME280;26392;42.696;23.350;2023-02-13T06:43:40;97210.69;;;0.62;100.00
40708;BME280;26392;42.696;23.350;2023-02-13T06:46:07;97213.16;;;0.36;100.00
40708;BME280;26392;42.696;23.350;2023-02-13T06:48:33;97212.19;;;0.37;100.00
40708;BME280;26392;42.696;23.350;2023-02-13T06:50:58;97208.94;;;0.33;100.00
40708;BME280;26392;42.696;23.350;2023-02-13T06:53:26;97210.59;;;0.54;100.00
40708;BME280;26392;42.696;23.350;2023-02-13T06:55:52;97209.50;;;0.74;100.00
40708;BME280;26392;42.696;23.350;2023-02-13T06:58:19;97191.84;;;0.81;100.00
40708;BME280;26392;42.696;23.350;2023-02-13T07:00:45;97208.13;;;0.98;100.00
40708;BME280;26392;42.696;23.350;2023-02-13T07:03:11;97204.75;;;0.96;100.00
40708;BME280;26392;42.696;23.350;2023-02-13T07:05:40;97207.88;;;0.91;100.00
40708;BME280;26392;42.696;23.350;2023-02-13T07:08:07;97195.94;;;1.03;100.00
40708;BME280;26392;42.696;23.350;2023-02-13T07:10:32;97203.25;;;1.11;100.00
40708;BME280;26392;42.696;23.350;2023-02-13T07:12:57;97200.44;;;1.13;100.00
40708;BME280;26392;42.696;23.350;2023-02-13T07:15:23;97199.53;;;1.40;100.00
40708;BME280;26392;42.696;23.350;2023-02-13T07:17:54;97211.28;;;1.39;100.00
40708;BME280;26392;42.696;23.350;2023-02-13T07:20:20;97210.69;;;1.45;100.00
40708;BME280;26392;42.696;23.350;2023-02-13T07:22:45;97225.13;;;1.44;100.00
40708;BME280;26392;42.696;23.350;2023-02-13T07:25:10;97215.56;;;1.31;100.00
40708;BME280;26392;42.696;23.350;2023-02-13T07:27:36;97219.78;;;1.34;100.00
40708;BME280;26392;42.696;23.350;2023-02-13T07:30:01;97222.06;;;1.11;100.00
40708;BME280;26392;42.696;23.350;2023-02-13T07:32:27;97221.91;;;1.13;100.00
40708;BME280;26392;42.696;23.350;2023-02-13T07:34:52;97216.78;;;0.92;100.00
40708;BME280;26392;42.696;23.350;2023-02-13T07:37:17;97219.47;;;0.92;100.00
40708;BME280;26392;42.696;23.350;2023-02-13T07:39:43;97218.81;;;0.80;100.00
40708;BME280;26392;42.696;23.350;2023-02-13T07:42:08;97209.25;;;0.95;100.00
40708;BME280;26392;42.696;23.350;2023-02-13T07:44:34;97213.69;;;1.14;100.00
40708;BME280;26392;42.696;23.350;2023-02-13T07:46:59;97222.03;;;1.39;100.00
40708;BME280;26392;42.696;23.350;2023-02-13T07:49:25;97212.44;;;1.54;100.00
40708;BME280;26392;42.696;23.350;2023-02-13T07:51:50;97214.16;;;1.73;100.00
40708;BME280;26392;42.696;23.350;2023-02-13T07:54:16;97214.53;;;1.96;100.00
40708;BME280;26392;42.696;23.350;2023-02-13T07:56:41;97219.91;;;1.96;100.00
40708;BME280;26392;42.696;23.350;2023-02-13T07:59:06;97215.47;;;2.05;100.00
40708;BME280;26392;42.696;23.350;2023-02-13T08:01:32;97216.81;;;2.09;100.00
40708;BME280;26392;42.696;23.350;2023-02-13T08:03:57;97217.53;;;1.93;100.00
40708;BME280;26392;42.696;23.350;2023-02-13T08:06:23;97220.59;;;2.16;100.00
40708;BME280;26392;42.696;23.350;2023-02-13T08:08:48;97209.09;;;2.32;100.00
40708;BME280;26392;42.696;23.350;2023-02-13T08:11:34;97215.91;;;2.70;100.00
40708;BME280;26392;42.696;23.350;2023-02-13T08:14:19;97217.75;;;2.69;100.00
40708;BME280;26392;42.696;23.350;2023-02-13T08:16:45;97210.56;;;2.78;100.00
40708;BME280;26392;42.696;23.350;2023-02-13T08:19:10;97211.88;;;2.74;100.00
40708;BME280;26392;42.696;23.350;2023-02-13T08:21:35;97210.28;;;2.89;100.00
40708;BME280;26392;42.696;23.350;2023-02-13T08:24:03;97215.41;;;3.01;100.00
40708;BME280;26392;42.696;23.350;2023-02-13T08:26:30;97216.47;;;3.16;100.00
40708;BME280;26392;42.696;23.350;2023-02-13T08:28:56;97210.56;;;3.12;100.00
40708;BME280;26392;42.696;23.350;2023-02-13T08:31:21;97218.50;;;3.14;100.00
40708;BME280;26392;42.696;23.350;2023-02-13T08:33:46;97216.16;;;3.27;100.00
40708;BME280;26392;42.696;23.350;2023-02-13T08:36:12;97205.94;;;3.47;100.00
40708;BME280;26392;42.696;23.350;2023-02-13T08:38:37;97205.78;;;3.49;100.00
40708;BME280;26392;42.696;23.350;2023-02-13T08:41:03;97210.41;;;3.73;100.00
40708;BME280;26392;42.696;23.350;2023-02-13T08:43:28;97205.84;;;3.73;100.00
40708;BME280;26392;42.696;23.350;2023-02-13T08:45:57;97204.34;;;3.87;100.00
40708;BME280;26392;42.696;23.350;2023-02-13T08:48:23;97205.88;;;4.06;100.00
40708;BME280;26392;42.696;23.350;2023-02-13T08:50:49;97204.53;;;4.10;100.00
40708;BME280;26392;42.696;23.350;2023-02-13T08:53:14;97204.03;;;4.07;100.00
40708;BME280;26392;42.696;23.350;2023-02-13T08:55:39;97202.53;;;4.12;100.00
40708;BME280;26392;42.696;23.350;2023-02-13T08:58:05;97205.38;;;4.35;100.00
40708;BME280;26392;42.696;23.350;2023-02-13T09:00:30;97203.16;;;4.31;100.00
40708;BME280;26392;42.696;23.350;2023-02-13T09:03:03;97196.59;;;4.33;100.00
40708;BME280;26392;42.696;23.350;2023-02-13T09:05:29;97203.84;;;4.57;100.00
40708;BME280;26392;42.696;23.350;2023-02-13T09:07:59;97211.25;;;4.63;100.00
40708;BME280;26392;42.696;23.350;2023-02-13T09:10:24;97208.22;;;4.42;100.00
40708;BME280;26392;42.696;23.350;2023-02-13T09:12:53;97198.13;;;4.36;100.00
40708;BME280;26392;42.696;23.350;2023-02-13T09:15:18;97207.91;;;4.29;100.00
40708;BME280;26392;42.696;23.350;2023-02-13T09:17:44;97201.66;;;4.20;100.00
40708;BME280;26392;42.696;23.350;2023-02-13T09:20:10;97201.16;;;4.33;100.00
40708;BME280;26392;42.696;23.350;2023-02-13T09:22:40;97207.38;;;4.41;100.00
40708;BME280;26392;42.696;23.350;2023-02-13T09:25:07;97215.31;;;4.51;99.98
40708;BME280;26392;42.696;23.350;2023-02-13T09:27:33;97207.03;;;4.53;98.58
40708;BME280;26392;42.696;23.350;2023-02-13T09:29:59;97204.31;;;4.61;98.63
40708;BME280;26392;42.696;23.350;2023-02-13T09:32:24;97192.38;;;4.47;97.59
40708;BME280;26392;42.696;23.350;2023-02-13T09:34:50;97185.66;;;4.35;97.74
40708;BME280;26392;42.696;23.350;2023-02-13T09:37:15;97186.16;;;4.30;98.72
40708;BME280;26392;42.696;23.350;2023-02-13T09:39:41;97188.50;;;4.25;99.08
40708;BME280;26392;42.696;23.350;2023-02-13T09:42:16;97185.66;;;4.26;99.71
40708;BME280;26392;42.696;23.350;2023-02-13T09:44:45;97179.72;;;4.39;98.82
40708;BME280;26392;42.696;23.350;2023-02-13T09:49:50;97175.94;;;4.65;97.10
40708;BME280;26392;42.696;23.350;2023-02-13T09:52:17;97168.47;;;4.91;94.95
40708;BME280;26392;42.696;23.350;2023-02-13T09:54:43;97174.75;;;4.76;94.22
40708;BME280;26392;42.696;23.350;2023-02-13T09:57:29;97161.22;;;4.84;93.70
40708;BME280;26392;42.696;23.350;2023-02-13T10:02:52;97160.00;;;5.34;91.41
40708;BME280;26392;42.696;23.350;2023-02-13T10:07:52;97147.38;;;5.57;87.90
40708;BME280;26392;42.696;23.350;2023-02-13T10:10:32;97146.63;;;5.41;87.76
40708;BME280;26392;42.696;23.350;2023-02-13T10:16:00;97133.38;;;4.83;90.69
40708;BME280;26392;42.696;23.350;2023-02-13T10:18:37;97133.38;;;4.83;91.83
40708;BME280;26392;42.696;23.350;2023-02-13T10:21:07;97132.28;;;5.01;94.91
40708;BME280;26392;42.696;23.350;2023-02-13T10:26:08;97124.34;;;5.07;89.66
40708;BME280;26392;42.696;23.350;2023-02-13T10:28:39;97127.50;;;5.11;90.66
40708;BME280;26392;42.696;23.350;2023-02-13T10:31:16;97114.53;;;5.06;90.06
40708;BME280;26392;42.696;23.350;2023-02-13T10:33:49;97101.81;;;4.76;90.91
40708;BME280;26392;42.696;23.350;2023-02-13T10:36:18;97114.72;;;4.65;91.94
40708;BME280;26392;42.696;23.350;2023-02-13T10:38:59;97107.59;;;4.64;91.91
40708;BME280;26392;42.696;23.350;2023-02-13T11:00:48;97075.53;;;4.22;93.64
40708;BME280;26392;42.696;23.350;2023-02-13T11:03:24;97073.63;;;4.31;93.17
40708;BME280;26392;42.696;23.350;2023-02-13T11:05:50;97068.91;;;4.41;93.01
40708;BME280;26392;42.696;23.350;2023-02-13T11:08:23;97060.28;;;4.45;93.25
40708;BME280;26392;42.696;23.350;2023-02-13T11:10:49;97063.41;;;4.65;92.34
40708;BME280;26392;42.696;23.350;2023-02-13T11:13:27;97061.19;;;4.69;89.97
40708;BME280;26392;42.696;23.350;2023-02-13T11:18:26;97052.56;;;4.74;90.92
40708;BME280;26392;42.696;23.350;2023-02-13T11:21:04;97033.63;;;4.82;90.14
40708;BME280;26392;42.696;23.350;2023-02-13T11:23:39;97028.47;;;4.95;88.35
40708;BME280;26392;42.696;23.350;2023-02-13T11:28:58;97026.91;;;5.01;88.06
40708;BME280;26392;42.696;23.350;2023-02-13T11:31:26;97012.78;;;5.22;86.07
40708;BME280;26392;42.696;23.350;2023-02-13T11:33:53;97004.59;;;5.30;85.28
40708;BME280;26392;42.696;23.350;2023-02-13T11:36:29;96995.84;;;5.28;84.47
40708;BME280;26392;42.696;23.350;2023-02-13T11:39:04;97008.91;;;5.39;83.66
40708;BME280;26392;42.696;23.350;2023-02-13T11:41:37;96988.59;;;5.43;81.88
40708;BME280;26392;42.696;23.350;2023-02-13T11:44:03;96997.31;;;5.53;80.02
40708;BME280;26392;42.696;23.350;2023-02-13T11:46:42;96994.97;;;5.50;77.23
40708;BME280;26392;42.696;23.350;2023-02-13T11:49:38;96983.06;;;5.59;74.96
40708;BME280;26392;42.696;23.350;2023-02-13T11:52:23;96971.78;;;5.71;73.19
40708;BME280;26392;42.696;23.350;2023-02-13T11:55:00;96973.03;;;5.83;71.40
40708;BME280;26392;42.696;23.350;2023-02-13T11:57:34;96965.00;;;5.90;69.68
40708;BME280;26392;42.696;23.350;2023-02-13T12:00:24;96952.69;;;5.87;68.01
40708;BME280;26392;42.696;23.350;2023-02-13T12:02:47;96960.00;;;6.01;66.37
40708;BME280;26392;42.696;23.350;2023-02-13T12:05:20;96956.81;;;6.13;65.04
40708;BME280;26392;42.696;23.350;2023-02-13T12:07:46;96949.81;;;6.18;64.43
40708;BME280;26392;42.696;23.350;2023-02-13T12:10:21;96949.75;;;6.12;61.32
40708;BME280;26392;42.696;23.350;2023-02-13T12:12:54;96946.09;;;6.04;61.08
40708;BME280;26392;42.696;23.350;2023-02-13T12:15:28;96939.59;;;6.14;60.60
40708;BME280;26392;42.696;23.350;2023-02-13T12:26:41;96930.22;;;6.31;57.78
40708;BME280;26392;42.696;23.350;2023-02-13T12:38:19;96933.59;;;6.33;55.65
40708;BME280;26392;42.696;23.350;2023-02-13T12:56:53;96904.03;;;6.53;51.91
40708;BME280;26392;42.696;23.350;2023-02-13T13:02:39;96891.59;;;6.59;52.92
40708;BME280;26392;42.696;23.350;2023-02-13T13:13:02;96881.38;;;6.76;53.45
40708;BME280;26392;42.696;23.350;2023-02-13T13:24:08;96865.69;;;6.71;54.31
40708;BME280;26392;42.696;23.350;2023-02-13T13:26:44;96869.22;;;6.71;54.11
40708;BME280;26392;42.696;23.350;2023-02-13T13:29:16;96878.00;;;6.73;53.75
40708;BME280;26392;42.696;23.350;2023-02-13T13:31:51;96862.41;;;6.76;53.82
40708;BME280;26392;42.696;23.350;2023-02-13T13:34:22;96866.19;;;6.60;53.14
40708;BME280;26392;42.696;23.350;2023-02-13T13:37:03;96868.25;;;6.58;53.22
40708;BME280;26392;42.696;23.350;2023-02-13T13:39:53;96856.78;;;6.56;53.60
40708;BME280;26392;42.696;23.350;2023-02-13T13:42:40;96853.47;;;6.60;54.05
40708;BME280;26392;42.696;23.350;2023-02-13T13:50:23;96869.59;;;6.68;53.98
40708;BME280;26392;42.696;23.350;2023-02-13T13:58:31;96858.38;;;6.71;54.90
40708;BME280;26392;42.696;23.350;2023-02-13T14:01:23;96864.63;;;6.72;54.88
40708;BME280;26392;42.696;23.350;2023-02-13T14:03:54;96863.19;;;6.69;54.91
40708;BME280;26392;42.696;23.350;2023-02-13T14:06:25;96870.13;;;6.57;55.35
40708;BME280;26392;42.696;23.350;2023-02-13T14:08:54;96850.06;;;6.52;55.55
40708;BME280;26392;42.696;23.350;2023-02-13T14:13:53;96839.66;;;6.55;56.14
40708;BME280;26392;42.696;23.350;2023-02-13T14:16:41;96843.47;;;6.61;56.19
40708;BME280;26392;42.696;23.350;2023-02-13T14:19:23;96845.09;;;6.55;56.12
40708;BME280;26392;42.696;23.350;2023-02-13T14:21:50;96848.66;;;6.56;56.47
40708;BME280;26392;42.696;23.350;2023-02-13T14:24:18;96846.53;;;6.51;56.41
40708;BME280;26392;42.696;23.350;2023-02-13T14:26:56;96836.41;;;6.60;56.37
40708;BME280;26392;42.696;23.350;2023-02-13T14:29:26;96839.31;;;6.58;56.39
40708;BME280;26392;42.696;23.350;2023-02-13T14:32:06;96832.41;;;6.56;56.04
40708;BME280;26392;42.696;23.350;2023-02-13T14:34:38;96828.41;;;6.52;55.96
40708;BME280;26392;42.696;23.350;2023-02-13T14:39:41;96828.34;;;6.45;56.36
40708;BME280;26392;42.696;23.350;2023-02-13T14:42:28;96840.56;;;6.41;56.70
40708;BME280;26392;42.696;23.350;2023-02-13T14:44:58;96827.03;;;6.41;56.97
40708;BME280;26392;42.696;23.350;2023-02-13T14:47:32;96826.59;;;6.37;57.85
40708;BME280;26392;42.696;23.350;2023-02-13T14:50:01;96822.22;;;6.36;57.53
40708;BME280;26392;42.696;23.350;2023-02-13T14:52:32;96830.78;;;6.40;57.97
40708;BME280;26392;42.696;23.350;2023-02-13T14:55:02;96823.09;;;6.43;58.01
40708;BME280;26392;42.696;23.350;2023-02-13T15:03:19;96817.47;;;6.23;58.42
40708;BME280;26392;42.696;23.350;2023-02-13T15:05:50;96815.25;;;6.12;59.10
40708;BME280;26392;42.696;23.350;2023-02-13T15:08:20;96809.41;;;6.09;59.00
40708;BME280;26392;42.696;23.350;2023-02-13T15:10:52;96818.28;;;6.02;58.64
40708;BME280;26392;42.696;23.350;2023-02-13T15:13:31;96807.19;;;5.97;58.24
40708;BME280;26392;42.696;23.350;2023-02-13T15:16:06;96819.50;;;6.00;58.46
40708;BME280;26392;42.696;23.350;2023-02-13T15:18:51;96819.69;;;5.98;58.82
40708;BME280;26392;42.696;23.350;2023-02-13T15:21:20;96824.63;;;5.95;59.35
40708;BME280;26392;42.696;23.350;2023-02-13T15:23:52;96828.53;;;5.92;58.95
40708;BME280;26392;42.696;23.350;2023-02-13T15:26:23;96824.34;;;5.75;59.12
40708;BME280;26392;42.696;23.350;2023-02-13T15:29:16;96823.63;;;5.66;59.56
40708;BME280;26392;42.696;23.350;2023-02-13T15:31:41;96815.59;;;5.58;60.37
40708;BME280;26392;42.696;23.350;2023-02-13T15:34:20;96817.72;;;5.63;60.25
40708;BME280;26392;42.696;23.350;2023-02-13T15:36:46;96824.34;;;5.60;60.02
40708;BME280;26392;42.696;23.350;2023-02-13T15:39:18;96825.84;;;5.63;59.98